createdAt,value
2023-03-02T00:00:16.540Z,0.80
2023-03-02T00:03:07.821Z,0.80
2023-03-02T00:05:41.335Z,0.80
2023-03-02T00:08:11.874Z,0.80
2023-03-02T00:10:41.653Z,0.80
2023-03-02T00:13:11.794Z,0.80
2023-03-02T00:15:42.371Z,0.80
2023-03-02T00:18:11.687Z,0.70
2023-03-02T00:20:42.872Z,0.70
2023-03-02T00:23:12.129Z,0.60
2023-03-02T00:25:42.016Z,0.60
2023-03-02T00:28:11.438Z,0.50
2023-03-02T00:30:41.712Z,0.50
2023-03-02T00:33:11.087Z,0.50
2023-03-02T00:35:42.906Z,0.50
2023-03-02T00:38:12.671Z,0.50
2023-03-02T00:40:47.151Z,0.50
2023-03-02T00:43:16.713Z,0.40
2023-03-02T00:45:46.705Z,0.40
2023-03-02T00:48:16.129Z,0.40
2023-03-02T00:50:47.562Z,0.30
2023-03-02T00:53:16.813Z,0.20
2023-03-02T00:55:55.973Z,0.30
2023-03-02T00:58:25.389Z,0.20
2023-03-02T01:00:56.071Z,0.20
2023-03-02T01:03:25.529Z,0.20
2023-03-02T01:05:56.669Z,0.20
2023-03-02T01:08:26.826Z,0.20
2023-03-02T01:10:56.466Z,0.20
2023-03-02T01:13:25.921Z,0.20
2023-03-02T01:16:02.510Z,0.20
2023-03-02T01:18:33.283Z,0.20
2023-03-02T01:21:05.988Z,0.20
2023-03-02T01:23:35.484Z,0.30
2023-03-02T01:26:05.844Z,0.30
2023-03-02T01:28:35.791Z,0.30
2023-03-02T01:31:05.622Z,0.40
2023-03-02T01:33:35.210Z,0.40
2023-03-02T01:36:07.089Z,0.40
2023-03-02T01:38:36.419Z,0.30
2023-03-02T01:41:06.788Z,0.40
2023-03-02T01:43:36.185Z,0.30
2023-03-02T01:46:08.609Z,0.40
2023-03-02T01:48:44.345Z,0.40
2023-03-02T01:51:18.054Z,0.40
2023-03-02T01:53:49.957Z,0.40
2023-03-02T01:56:23.127Z,0.40
2023-03-02T01:58:55.875Z,0.40
2023-03-02T02:01:26.185Z,0.30
2023-03-02T02:03:55.494Z,0.30
2023-03-02T02:06:30.882Z,0.30
2023-03-02T02:09:01.702Z,0.40
2023-03-02T02:11:32.451Z,0.40
2023-03-02T02:14:03.622Z,0.30
2023-03-02T02:16:35.812Z,0.30
2023-03-02T02:19:08.925Z,0.30
2023-03-02T02:21:40.452Z,0.30
2023-03-02T02:24:13.669Z,0.30
2023-03-02T02:26:49.037Z,0.30
2023-03-02T02:29:23.209Z,0.30
2023-03-02T02:31:57.557Z,0.30
2023-03-02T02:34:32.393Z,0.20
2023-03-02T02:37:08.736Z,0.30
2023-03-02T02:39:42.653Z,0.20
2023-03-02T02:42:18.226Z,0.20
2023-03-02T02:44:48.827Z,0.10
2023-03-02T02:47:19.337Z,0.10
2023-03-02T02:49:51.794Z,0.10
2023-03-02T02:52:24.360Z,0.00
2023-03-02T02:54:56.838Z,0.10
2023-03-02T02:57:31.550Z,0.10
2023-03-02T03:00:03.068Z,0.00
2023-03-02T03:02:39.468Z,0.00
2023-03-02T03:05:15.431Z,0.00
2023-03-02T03:07:45.462Z,0.00
2023-03-02T03:10:20.382Z,-0.10
2023-03-02T03:12:52.449Z,-0.10
2023-03-02T03:15:22.088Z,-0.10
2023-03-02T03:17:57.087Z,-0.10
2023-03-02T03:20:28.387Z,-0.10
2023-03-02T03:23:00.022Z,-0.20
2023-03-02T03:25:29.679Z,-0.20
2023-03-02T03:28:00.794Z,-0.20
2023-03-02T03:30:30.619Z,-0.20
2023-03-02T03:33:00.375Z,-0.20
2023-03-02T03:35:29.698Z,-0.20
2023-03-02T03:37:59.503Z,-0.20
2023-03-02T03:40:29.327Z,-0.10
2023-03-02T03:43:00.524Z,-0.20
2023-03-02T03:45:30.485Z,-0.20
2023-03-02T03:48:00.237Z,-0.10
2023-03-02T03:50:29.498Z,-0.10
2023-03-02T03:52:59.141Z,-0.10
2023-03-02T03:55:29.370Z,-0.10
2023-03-02T03:58:00.442Z,-0.10
2023-03-02T04:00:29.938Z,-0.10
2023-03-02T04:02:59.658Z,-0.10
2023-03-02T04:05:31.496Z,0.00
2023-03-02T04:08:02.664Z,0.00
2023-03-02T04:10:32.138Z,0.00
2023-03-02T04:13:03.572Z,0.10
2023-03-02T04:15:32.706Z,0.00
2023-03-02T04:18:02.572Z,0.10
2023-03-02T04:20:32.008Z,0.10
2023-03-02T04:23:02.059Z,0.10
2023-03-02T04:25:32.244Z,0.10
2023-03-02T04:28:03.498Z,0.00
2023-03-02T04:30:33.442Z,0.00
2023-03-02T04:33:03.231Z,-0.10
2023-03-02T04:35:32.682Z,-0.10
2023-03-02T04:38:02.433Z,-0.20
2023-03-02T04:40:31.965Z,-0.20
2023-03-02T04:43:03.242Z,-0.20
2023-03-02T04:45:32.760Z,-0.30
2023-03-02T04:48:02.727Z,-0.30
2023-03-02T04:50:32.293Z,-0.30
2023-03-02T04:53:01.978Z,-0.30
2023-03-02T04:55:31.676Z,-0.30
2023-03-02T04:58:03.275Z,-0.30
2023-03-02T05:00:34.475Z,-0.30
2023-03-02T05:03:05.500Z,-0.20
2023-03-02T05:05:35.843Z,-0.30
2023-03-02T05:08:05.931Z,-0.20
2023-03-02T05:10:35.900Z,-0.20
2023-03-02T05:13:07.564Z,-0.20
2023-03-02T05:15:38.229Z,-0.20
2023-03-02T05:18:08.683Z,-0.20
2023-03-02T05:20:37.988Z,-0.20
2023-03-02T05:23:17.401Z,-0.10
2023-03-02T05:25:47.372Z,-0.20
2023-03-02T05:28:18.912Z,-0.20
2023-03-02T05:30:47.917Z,-0.20
2023-03-02T05:33:18.388Z,-0.20
2023-03-02T05:35:48.711Z,-0.20
2023-03-02T05:38:18.576Z,-0.20
2023-03-02T05:40:48.574Z,-0.20
2023-03-02T05:43:21.975Z,-0.20
2023-03-02T05:45:51.670Z,-0.20
2023-03-02T05:48:21.422Z,-0.20
2023-03-02T05:50:50.807Z,-0.10
2023-03-02T05:53:21.005Z,-0.10
2023-03-02T05:55:50.661Z,-0.10
2023-03-02T05:58:22.243Z,-0.10
2023-03-02T06:00:52.106Z,-0.10
2023-03-02T06:03:22.103Z,-0.10
2023-03-02T06:05:52.625Z,-0.10
2023-03-02T06:08:23.169Z,-0.20
2023-03-02T06:10:56.669Z,-0.20
2023-03-02T06:13:28.107Z,-0.10
2023-03-02T06:15:57.700Z,-0.20
2023-03-02T06:18:27.704Z,-0.20
2023-03-02T06:20:57.410Z,-0.10
2023-03-02T06:23:27.621Z,0.00
2023-03-02T06:25:58.388Z,0.10
2023-03-02T06:28:29.582Z,0.00
2023-03-02T06:31:00.771Z,0.10
2023-03-02T06:33:30.852Z,0.10
2023-03-02T06:36:00.502Z,0.10
2023-03-02T06:38:30.237Z,0.20
2023-03-02T06:41:00.503Z,0.20
2023-03-02T06:43:31.767Z,0.30
2023-03-02T06:46:02.315Z,0.30
2023-03-02T06:48:32.022Z,0.40
2023-03-02T06:51:01.529Z,0.40
2023-03-02T06:53:31.556Z,0.50
2023-03-02T06:56:01.165Z,0.50
2023-03-02T06:58:32.238Z,0.60
2023-03-02T07:01:01.896Z,0.70
2023-03-02T07:03:32.152Z,0.70
2023-03-02T07:06:01.496Z,0.80
2023-03-02T07:08:31.193Z,0.80
2023-03-02T07:11:00.487Z,0.90
2023-03-02T07:13:31.915Z,1.00
2023-03-02T07:16:01.372Z,1.00
2023-03-02T07:18:31.579Z,1.10
2023-03-02T07:21:01.087Z,1.20
2023-03-02T07:23:30.759Z,1.30
2023-03-02T07:26:00.219Z,1.40
2023-03-02T07:28:30.012Z,1.50
2023-03-02T07:31:00.939Z,1.60
2023-03-02T07:33:30.792Z,1.70
2023-03-02T07:36:00.115Z,1.80
2023-03-02T07:38:30.063Z,1.80
2023-03-02T07:41:00.112Z,1.80
2023-03-02T07:43:31.117Z,1.80
2023-03-02T07:46:02.803Z,1.90
2023-03-02T07:48:32.895Z,1.90
2023-03-02T07:51:03.331Z,2.00
2023-03-02T07:53:33.309Z,2.10
2023-03-02T07:56:07.002Z,2.20
2023-03-02T07:58:36.673Z,2.30
2023-03-02T08:01:08.034Z,2.30
2023-03-02T08:03:37.791Z,2.40
2023-03-02T08:06:08.536Z,2.50
2023-03-02T08:08:39.556Z,2.50
2023-03-02T08:11:10.014Z,2.60
2023-03-02T08:13:40.269Z,2.70
2023-03-02T08:16:13.685Z,2.70
2023-03-02T08:18:44.319Z,2.80
2023-03-02T08:21:15.311Z,2.90
2023-03-02T08:23:45.234Z,3.00
2023-03-02T08:26:17.419Z,3.10
2023-03-02T08:28:48.112Z,3.20
2023-03-02T08:31:19.076Z,3.20
2023-03-02T08:33:48.936Z,3.40
2023-03-02T08:36:20.309Z,3.50
2023-03-02T08:38:51.347Z,3.50
2023-03-02T08:41:22.241Z,3.50
2023-03-02T08:43:54.426Z,3.60
2023-03-02T08:46:25.390Z,3.80
2023-03-02T08:48:55.262Z,3.80
2023-03-02T08:51:26.248Z,4.00
2023-03-02T08:53:57.244Z,4.10
2023-03-02T08:56:28.778Z,4.10
2023-03-02T08:59:01.375Z,4.00
2023-03-02T09:01:34.945Z,4.10
2023-03-02T09:04:06.171Z,4.10
2023-03-02T09:06:37.765Z,4.10
2023-03-02T09:09:08.863Z,4.20
2023-03-02T09:11:38.967Z,4.20
2023-03-02T09:14:08.817Z,4.20
2023-03-02T09:16:39.973Z,4.20
2023-03-02T09:19:10.172Z,4.30
2023-03-02T09:21:39.507Z,4.40
2023-03-02T09:24:09.946Z,4.50
2023-03-02T09:26:39.781Z,4.60
2023-03-02T09:29:10.054Z,4.70
2023-03-02T09:31:40.884Z,4.80
2023-03-02T09:34:11.160Z,4.90
2023-03-02T09:36:40.518Z,5.00
2023-03-02T09:39:12.669Z,5.00
2023-03-02T09:42:18.007Z,5.20
2023-03-02T09:45:16.055Z,5.30
2023-03-02T09:47:56.991Z,5.30
2023-03-02T09:50:32.675Z,5.40
2023-03-02T09:53:37.331Z,5.40
2023-03-02T09:56:17.133Z,5.50
2023-03-02T09:58:54.507Z,5.50
2023-03-02T10:01:35.916Z,5.50
2023-03-02T10:04:24.669Z,5.60
2023-03-02T10:07:12.216Z,5.60
2023-03-02T10:09:42.456Z,5.70
2023-03-02T10:12:36.549Z,5.70
2023-03-02T10:15:11.871Z,5.70
2023-03-02T10:17:53.159Z,5.50
2023-03-02T10:20:34.617Z,5.60
2023-03-02T10:23:18.030Z,5.60
2023-03-02T10:25:53.831Z,5.70
2023-03-02T10:28:25.803Z,5.70
2023-03-02T10:31:05.098Z,5.70
2023-03-02T10:33:38.456Z,5.80
2023-03-02T10:36:23.101Z,5.90
2023-03-02T10:38:53.819Z,5.90
2023-03-02T10:41:27.929Z,5.90
2023-03-02T10:44:02.255Z,6.00
2023-03-02T10:46:43.193Z,6.00
2023-03-02T10:49:39.172Z,6.00
2023-03-02T10:52:20.048Z,6.10
2023-03-02T10:54:50.395Z,6.20
2023-03-02T10:57:35.960Z,6.40
2023-03-02T11:00:18.130Z,6.70
2023-03-02T11:02:54.924Z,6.90
2023-03-02T11:05:30.264Z,7.50
2023-03-02T11:08:02.126Z,8.20
2023-03-02T11:10:34.587Z,9.10
2023-03-02T11:13:05.290Z,10.30
2023-03-02T11:15:45.238Z,10.90
2023-03-02T11:18:25.982Z,11.60
2023-03-02T11:21:01.194Z,11.60
2023-03-02T11:23:42.005Z,11.70
2023-03-02T11:26:21.802Z,12.20
2023-03-02T11:29:00.845Z,12.30
2023-03-02T11:31:42.737Z,12.00
2023-03-02T11:34:30.692Z,12.20
2023-03-02T11:37:11.645Z,11.70
2023-03-02T11:39:58.396Z,12.00
2023-03-02T11:42:32.026Z,12.80
2023-03-02T11:45:08.139Z,13.30
2023-03-02T11:47:39.332Z,13.50
2023-03-02T11:50:14.039Z,13.50
2023-03-02T11:52:49.639Z,12.70
2023-03-02T11:55:23.951Z,12.50
2023-03-02T11:57:56.547Z,12.20
2023-03-02T12:00:33.085Z,11.80
2023-03-02T12:03:05.595Z,11.30
2023-03-02T12:05:37.623Z,11.50
2023-03-02T12:08:09.764Z,11.80
2023-03-02T12:10:43.063Z,12.00
2023-03-02T12:13:20.148Z,12.70
2023-03-02T12:15:51.478Z,13.30
2023-03-02T12:18:48.250Z,14.00
2023-03-02T12:21:19.481Z,13.60
2023-03-02T12:24:04.179Z,13.00
2023-03-02T12:26:38.611Z,13.10
2023-03-02T12:29:25.750Z,12.80
2023-03-02T12:31:57.799Z,13.20
2023-03-02T12:34:35.384Z,12.30
2023-03-02T12:37:16.098Z,11.70
2023-03-02T12:40:15.753Z,12.30
2023-03-02T12:42:59.606Z,12.00
2023-03-02T12:45:49.323Z,12.20
2023-03-02T12:48:27.060Z,12.60
2023-03-02T12:51:01.488Z,12.90
2023-03-02T12:53:32.557Z,13.40
2023-03-02T12:56:02.260Z,13.60
2023-03-02T12:58:34.348Z,13.90
2023-03-02T13:01:06.129Z,13.70
2023-03-02T13:03:35.516Z,13.80
2023-03-02T13:06:12.559Z,13.90
2023-03-02T13:08:45.043Z,13.10
2023-03-02T13:11:14.969Z,13.30
2023-03-02T13:13:48.470Z,13.60
2023-03-02T13:16:23.558Z,13.50
2023-03-02T13:18:57.269Z,13.00
2023-03-02T13:21:34.019Z,12.60
2023-03-02T13:24:04.267Z,12.70
2023-03-02T13:26:36.360Z,12.00
2023-03-02T13:29:19.508Z,12.50
2023-03-02T13:31:49.782Z,12.80
2023-03-02T13:34:24.511Z,13.10
2023-03-02T13:36:54.996Z,12.80
2023-03-02T13:39:27.804Z,12.80
2023-03-02T13:41:58.986Z,12.10
2023-03-02T13:44:31.553Z,12.40
2023-03-02T13:47:02.369Z,12.60
2023-03-02T13:49:34.121Z,12.80
2023-03-02T13:52:08.211Z,12.70
2023-03-02T13:54:39.234Z,12.40
2023-03-02T13:57:09.187Z,12.40
2023-03-02T13:59:40.084Z,12.80
2023-03-02T14:02:20.140Z,13.00
2023-03-02T14:04:49.739Z,12.70
2023-03-02T14:07:19.446Z,12.50
2023-03-02T14:09:49.141Z,11.60
2023-03-02T14:12:25.704Z,11.10
2023-03-02T14:14:59.059Z,10.70
2023-03-02T14:17:29.300Z,11.00
2023-03-02T14:19:58.594Z,11.00
2023-03-02T14:22:30.522Z,11.20
2023-03-02T14:25:00.002Z,11.60
2023-03-02T14:27:32.144Z,11.90
2023-03-02T14:30:02.975Z,12.20
2023-03-02T14:32:32.704Z,12.10
2023-03-02T14:35:02.201Z,12.30
2023-03-02T14:37:31.961Z,11.80
2023-03-02T14:40:01.767Z,11.90
2023-03-02T14:42:31.670Z,12.30
2023-03-02T14:45:02.661Z,12.40
2023-03-02T14:47:32.266Z,12.80
2023-03-02T14:50:01.683Z,12.90
2023-03-02T14:52:36.646Z,12.70
2023-03-02T14:55:14.017Z,12.50
2023-03-02T14:57:43.736Z,12.20
2023-03-02T15:00:17.037Z,12.30
2023-03-02T15:02:46.842Z,12.20
2023-03-02T15:05:16.527Z,12.00
2023-03-02T15:07:47.058Z,11.80
2023-03-02T15:10:19.149Z,11.40
2023-03-02T15:12:48.906Z,10.90
2023-03-02T15:15:20.562Z,10.20
2023-03-02T15:17:50.312Z,9.70
2023-03-02T15:20:20.600Z,9.20
2023-03-02T15:22:51.113Z,8.40
2023-03-02T15:25:20.546Z,7.90
2023-03-02T15:27:50.550Z,7.50
2023-03-02T15:30:22.093Z,7.20
2023-03-02T15:32:51.715Z,6.80
2023-03-02T15:35:21.677Z,6.50
2023-03-02T15:37:51.441Z,6.20
2023-03-02T15:40:21.058Z,5.80
2023-03-02T15:42:50.860Z,5.70
2023-03-02T15:45:21.569Z,5.50
2023-03-02T15:47:51.580Z,5.30
2023-03-02T15:50:20.863Z,5.00
2023-03-02T15:52:51.412Z,4.90
2023-03-02T15:55:20.685Z,4.60
2023-03-02T15:57:50.492Z,4.30
2023-03-02T16:00:22.797Z,4.10
2023-03-02T16:02:52.801Z,4.00
2023-03-02T16:05:22.289Z,3.80
2023-03-02T16:07:52.011Z,3.60
2023-03-02T16:10:21.436Z,3.40
2023-03-02T16:12:51.225Z,3.30
2023-03-02T16:15:21.984Z,3.20
2023-03-02T16:17:51.680Z,3.00
2023-03-02T16:20:21.474Z,2.90
2023-03-02T16:22:51.074Z,2.70
2023-03-02T16:25:20.469Z,2.60
2023-03-02T16:27:50.258Z,2.50
2023-03-02T16:30:23.449Z,2.40
2023-03-02T16:32:53.357Z,2.30
2023-03-02T16:35:22.851Z,2.30
2023-03-02T16:37:52.608Z,2.20
2023-03-02T16:40:22.422Z,2.10
2023-03-02T16:42:53.050Z,2.00
2023-03-02T16:45:24.461Z,1.90
2023-03-02T16:47:54.224Z,1.80
2023-03-02T16:50:24.161Z,1.70
2023-03-02T16:52:53.897Z,1.70
2023-03-02T16:55:23.319Z,1.60
2023-03-02T16:57:52.923Z,1.60
2023-03-02T17:00:24.924Z,1.50
2023-03-02T17:02:55.159Z,1.50
2023-03-02T17:05:24.919Z,1.50
2023-03-02T17:07:55.214Z,1.40
2023-03-02T17:10:24.907Z,1.30
2023-03-02T17:12:54.925Z,1.30
2023-03-02T17:15:25.682Z,1.30
2023-03-02T17:17:55.501Z,1.20
2023-03-02T17:20:24.888Z,1.20
2023-03-02T17:22:55.261Z,1.00
2023-03-02T17:25:24.897Z,0.90
2023-03-02T17:27:54.655Z,0.90
2023-03-02T17:30:25.506Z,0.80
2023-03-02T17:32:55.166Z,0.70
2023-03-02T17:35:24.463Z,0.70
2023-03-02T17:37:54.181Z,0.60
2023-03-02T17:40:23.959Z,0.60
2023-03-02T17:42:56.132Z,0.60
2023-03-02T17:45:29.575Z,0.60
2023-03-02T17:48:01.144Z,0.70
2023-03-02T17:50:32.029Z,0.60
2023-03-02T17:53:02.396Z,0.70
2023-03-02T17:55:32.043Z,0.60
2023-03-02T17:58:01.740Z,0.60
2023-03-02T18:00:33.824Z,0.60
2023-03-02T18:03:03.513Z,0.60
2023-03-02T18:05:32.923Z,0.60
2023-03-02T18:08:02.705Z,0.60
2023-03-02T18:10:32.112Z,0.60
2023-03-02T18:13:01.931Z,0.60
2023-03-02T18:15:32.880Z,0.60
2023-03-02T18:18:02.829Z,0.60
2023-03-02T18:20:32.518Z,0.50
2023-03-02T18:23:02.233Z,0.50
2023-03-02T18:25:31.684Z,0.50
2023-03-02T18:28:01.352Z,0.60
2023-03-02T18:30:32.314Z,0.60
2023-03-02T18:33:02.302Z,0.60
2023-03-02T18:35:31.659Z,0.50
2023-03-02T18:38:01.520Z,0.50
2023-03-02T18:40:30.922Z,0.50
2023-03-02T18:43:00.786Z,0.60
2023-03-02T18:45:33.548Z,0.60
2023-03-02T18:48:03.685Z,0.50
2023-03-02T18:50:32.947Z,0.50
2023-03-02T18:53:02.980Z,0.50
2023-03-02T18:55:32.436Z,0.60
2023-03-02T18:58:02.273Z,0.60
2023-03-02T19:00:33.705Z,0.50
2023-03-02T19:03:03.437Z,0.60
2023-03-02T19:05:32.864Z,0.60
2023-03-02T19:08:02.991Z,0.60
2023-03-02T19:10:32.660Z,0.70
2023-03-02T19:13:02.602Z,0.70
2023-03-02T19:15:35.102Z,0.60
2023-03-02T19:18:05.226Z,0.60
2023-03-02T19:20:34.932Z,0.60
2023-03-02T19:23:05.186Z,0.60
2023-03-02T19:25:34.560Z,0.60
2023-03-02T19:28:04.751Z,0.60
2023-03-02T19:30:37.035Z,0.60
2023-03-02T19:33:07.557Z,0.60
2023-03-02T19:35:38.094Z,0.50
2023-03-02T19:38:07.872Z,0.60
2023-03-02T19:40:37.972Z,0.50
2023-03-02T19:43:07.898Z,0.50
2023-03-02T19:45:38.788Z,0.40
2023-03-02T19:48:13.864Z,0.40
2023-03-02T19:50:45.707Z,0.40
2023-03-02T19:53:16.187Z,0.40
2023-03-02T19:55:45.685Z,0.40
2023-03-02T19:58:19.346Z,0.40
2023-03-02T20:00:50.729Z,0.40
2023-03-02T20:03:20.664Z,0.40
2023-03-02T20:05:49.922Z,0.40
2023-03-02T20:08:21.869Z,0.40
2023-03-02T20:10:51.754Z,0.40
2023-03-02T20:13:21.847Z,0.40
2023-03-02T20:15:53.287Z,0.40
2023-03-02T20:18:22.962Z,0.30
2023-03-02T20:20:52.405Z,0.40
2023-03-02T20:23:22.431Z,0.30
2023-03-02T20:25:51.800Z,0.30
2023-03-02T20:28:24.111Z,0.30
2023-03-02T20:30:57.543Z,0.30
2023-03-02T20:33:29.703Z,0.30
2023-03-02T20:36:01.184Z,0.30
2023-03-02T20:38:35.427Z,0.30
2023-03-02T20:41:05.526Z,0.30
2023-03-02T20:43:35.344Z,0.30
2023-03-02T20:46:07.588Z,0.30
2023-03-02T20:48:37.940Z,0.20
2023-03-02T20:51:07.824Z,0.20
2023-03-02T20:53:37.472Z,0.20
2023-03-02T20:56:07.440Z,0.10
2023-03-02T20:58:41.361Z,0.10
2023-03-02T21:01:14.203Z,0.10
2023-03-02T21:03:45.124Z,0.10
2023-03-02T21:06:16.145Z,0.10
2023-03-02T21:08:46.707Z,0.00
2023-03-02T21:11:18.494Z,0.10
2023-03-02T21:13:49.820Z,0.10
2023-03-02T21:16:22.626Z,0.10
2023-03-02T21:18:52.425Z,0.10
2023-03-02T21:21:32.479Z,0.10
2023-03-02T21:24:09.722Z,0.20
2023-03-02T21:26:39.106Z,0.10
2023-03-02T21:29:09.659Z,0.10
2023-03-02T21:31:41.247Z,0.10
2023-03-02T21:34:11.090Z,0.10
2023-03-02T21:36:40.771Z,0.10
2023-03-02T21:39:12.045Z,0.10
2023-03-02T21:41:41.920Z,0.10
2023-03-02T21:44:11.879Z,0.10
2023-03-02T21:46:42.780Z,0.10
2023-03-02T21:49:14.042Z,0.10
2023-03-02T21:51:44.027Z,0.10
2023-03-02T21:54:13.617Z,0.00
2023-03-02T21:56:43.397Z,0.00
2023-03-02T21:59:13.830Z,0.00
2023-03-02T22:01:44.911Z,0.00
2023-03-02T22:04:14.590Z,0.00
2023-03-02T22:06:43.986Z,0.00
2023-03-02T22:09:13.754Z,0.00
2023-03-02T22:11:43.096Z,-0.10
2023-03-02T22:14:14.439Z,-0.10
2023-03-02T22:16:48.373Z,-0.10
2023-03-02T22:19:29.230Z,-0.10
2023-03-02T22:22:00.342Z,-0.10
2023-03-02T22:24:31.606Z,-0.10
2023-03-02T22:27:04.039Z,-0.10
2023-03-02T22:29:40.200Z,-0.10
2023-03-02T22:32:19.390Z,-0.10
2023-03-02T22:34:51.212Z,-0.20
2023-03-02T22:37:22.465Z,-0.30
2023-03-02T22:39:56.031Z,-0.30
2023-03-02T22:42:27.592Z,-0.20
2023-03-02T22:45:03.766Z,-0.30
2023-03-02T22:47:34.547Z,-0.30
2023-03-02T22:50:20.509Z,-0.40
2023-03-02T22:52:50.142Z,-0.30
2023-03-02T22:55:37.663Z,-0.30
2023-03-02T22:58:46.082Z,-0.40
2023-03-02T23:01:24.580Z,-0.40
2023-03-02T23:03:59.195Z,-0.40
2023-03-02T23:06:32.170Z,-0.40
2023-03-02T23:09:06.306Z,-0.40
2023-03-02T23:11:39.142Z,-0.40
2023-03-02T23:14:18.361Z,-0.40
2023-03-02T23:16:52.605Z,-0.40
2023-03-02T23:19:23.909Z,-0.40
2023-03-02T23:21:53.845Z,-0.40
2023-03-02T23:24:23.306Z,-0.40
2023-03-02T23:26:54.483Z,-0.40
2023-03-02T23:29:23.882Z,-0.40
2023-03-02T23:31:53.622Z,-0.40
2023-03-02T23:34:24.888Z,-0.50
2023-03-02T23:36:54.815Z,-0.50
2023-03-02T23:39:24.374Z,-0.50
2023-03-02T23:41:54.739Z,-0.50
2023-03-02T23:44:24.756Z,-0.50
2023-03-02T23:46:54.614Z,-0.50
2023-03-02T23:49:25.360Z,-0.50
2023-03-02T23:51:55.059Z,-0.50
2023-03-02T23:54:24.487Z,-0.50
2023-03-02T23:56:54.768Z,-0.50
2023-03-02T23:59:24.697Z,-0.50
